createdAt,value
2023-03-06T00:00:42.042Z,88.58
2023-03-06T00:03:09.234Z,89.02
2023-03-06T00:05:36.326Z,88.72
2023-03-06T00:08:03.853Z,89.26
2023-03-06T00:10:31.606Z,88.96
2023-03-06T00:13:00.969Z,88.65
2023-03-06T00:15:28.930Z,88.91
2023-03-06T00:17:56.222Z,89.22
2023-03-06T00:20:24.123Z,89.22
2023-03-06T00:22:51.416Z,89.18
2023-03-06T00:25:20.786Z,88.90
2023-03-06T00:27:48.668Z,89.06
2023-03-06T00:30:19.049Z,89.32
2023-03-06T00:32:46.350Z,88.71
2023-03-06T00:35:14.375Z,89.50
2023-03-06T00:37:44.004Z,90.11
2023-03-06T00:40:14.114Z,89.19
2023-03-06T00:42:41.281Z,89.06
2023-03-06T00:45:09.863Z,89.33
2023-03-06T00:47:37.154Z,89.62
2023-03-06T00:50:05.232Z,89.12
2023-03-06T00:52:32.725Z,89.70
2023-03-06T00:54:59.844Z,89.95
2023-03-06T00:57:27.056Z,90.22
2023-03-06T00:59:54.188Z,89.73
2023-03-06T01:02:21.670Z,89.96
2023-03-06T01:04:48.836Z,90.54
2023-03-06T01:07:15.703Z,90.69
2023-03-06T01:09:42.862Z,90.15
2023-03-06T01:12:09.977Z,89.77
2023-03-06T01:14:37.205Z,89.89
2023-03-06T01:17:04.463Z,90.42
2023-03-06T01:19:31.530Z,89.93
2023-03-06T01:21:58.608Z,89.98
2023-03-06T01:24:26.161Z,90.50
2023-03-06T01:26:56.643Z,90.34
2023-03-06T01:29:23.837Z,91.09
2023-03-06T01:31:50.710Z,90.86
2023-03-06T01:34:18.214Z,90.55
2023-03-06T01:36:45.549Z,90.17
2023-03-06T01:39:12.448Z,90.75
2023-03-06T01:41:39.594Z,90.21
2023-03-06T01:44:06.402Z,90.50
2023-03-06T01:46:43.959Z,90.85
2023-03-06T01:49:26.476Z,90.74
2023-03-06T01:52:07.744Z,90.72
2023-03-06T01:54:37.702Z,89.99
2023-03-06T01:57:13.401Z,89.75
2023-03-06T01:59:42.842Z,89.91
2023-03-06T02:02:11.734Z,89.54
2023-03-06T02:04:40.843Z,89.93
2023-03-06T02:07:08.703Z,89.23
2023-03-06T02:09:37.292Z,88.89
2023-03-06T02:12:09.611Z,88.38
2023-03-06T02:14:37.304Z,88.98
2023-03-06T02:17:05.943Z,88.38
2023-03-06T02:19:40.884Z,89.17
2023-03-06T02:22:08.181Z,89.58
2023-03-06T02:24:45.711Z,89.65
2023-03-06T02:27:14.706Z,89.78
2023-03-06T02:29:42.966Z,89.46
2023-03-06T02:32:11.203Z,89.66
2023-03-06T02:34:38.371Z,89.70
2023-03-06T02:37:11.300Z,89.64
2023-03-06T02:39:43.609Z,89.50
2023-03-06T02:42:20.995Z,90.35
2023-03-06T02:44:49.104Z,90.19
2023-03-06T02:47:16.052Z,90.67
2023-03-06T02:49:43.275Z,90.37
2023-03-06T02:52:10.609Z,90.04
2023-03-06T02:54:39.982Z,89.76
2023-03-06T02:57:07.930Z,90.30
2023-03-06T02:59:35.560Z,89.97
2023-03-06T03:02:04.917Z,90.46
2023-03-06T03:04:34.269Z,90.12
2023-03-06T03:07:02.497Z,91.10
2023-03-06T03:09:29.782Z,90.34
2023-03-06T03:11:57.078Z,90.37
2023-03-06T03:14:25.156Z,90.16
2023-03-06T03:16:53.238Z,90.58
2023-03-06T03:19:20.557Z,90.97
2023-03-06T03:21:47.802Z,90.44
2023-03-06T03:24:15.090Z,90.89
2023-03-06T03:26:43.123Z,91.29
2023-03-06T03:29:14.729Z,90.87
2023-03-06T03:31:42.042Z,90.76
2023-03-06T03:34:09.629Z,91.51
2023-03-06T03:36:39.854Z,91.23
2023-03-06T03:39:08.982Z,90.97
2023-03-06T03:41:36.646Z,90.72
2023-03-06T03:44:07.226Z,90.73
2023-03-06T03:46:34.741Z,91.13
2023-03-06T03:49:03.253Z,91.52
2023-03-06T03:51:31.332Z,91.32
2023-03-06T03:53:59.641Z,91.65
2023-03-06T03:56:30.422Z,91.75
2023-03-06T03:59:05.391Z,91.52
2023-03-06T04:01:39.983Z,90.99
2023-03-06T04:04:08.338Z,90.79
2023-03-06T04:06:36.412Z,91.27
2023-03-06T04:09:04.840Z,90.96
2023-03-06T04:11:33.412Z,91.63
2023-03-06T04:14:01.111Z,90.88
2023-03-06T04:16:28.599Z,91.17
2023-03-06T04:18:56.329Z,91.64
2023-03-06T04:21:23.648Z,91.77
2023-03-06T04:23:50.953Z,91.89
2023-03-06T04:26:18.348Z,92.05
2023-03-06T04:28:45.841Z,91.03
2023-03-06T04:31:13.506Z,91.95
2023-03-06T04:33:40.844Z,91.89
2023-03-06T04:36:20.963Z,91.83
2023-03-06T04:38:48.472Z,91.68
2023-03-06T04:41:16.488Z,91.37
2023-03-06T04:43:44.017Z,91.47
2023-03-06T04:46:11.832Z,91.23
2023-03-06T04:48:38.940Z,91.09
2023-03-06T04:51:07.067Z,92.08
2023-03-06T04:53:34.185Z,91.47
2023-03-06T04:56:01.534Z,92.00
2023-03-06T04:58:28.574Z,91.71
2023-03-06T05:00:56.093Z,90.87
2023-03-06T05:03:23.494Z,91.24
2023-03-06T05:05:51.061Z,90.36
2023-03-06T05:08:18.436Z,90.04
2023-03-06T05:10:46.245Z,89.29
2023-03-06T05:13:13.444Z,88.84
2023-03-06T05:15:42.377Z,89.25
2023-03-06T05:18:09.653Z,89.58
2023-03-06T05:20:36.918Z,88.62
2023-03-06T05:23:04.318Z,88.89
2023-03-06T05:25:31.435Z,88.65
2023-03-06T05:27:58.899Z,89.05
2023-03-06T05:30:26.315Z,89.34
2023-03-06T05:32:53.926Z,88.57
2023-03-06T05:35:23.769Z,89.20
2023-03-06T05:37:51.351Z,89.01
2023-03-06T05:40:19.480Z,89.40
2023-03-06T05:42:46.709Z,88.86
2023-03-06T05:45:14.062Z,89.49
2023-03-06T05:47:41.447Z,88.92
2023-03-06T05:50:10.803Z,89.46
2023-03-06T05:52:40.033Z,88.76
2023-03-06T05:55:08.493Z,88.20
2023-03-06T05:57:35.640Z,89.01
2023-03-06T06:00:04.154Z,88.92
2023-03-06T06:02:39.680Z,89.03
2023-03-06T06:05:08.190Z,89.13
2023-03-06T06:07:35.599Z,88.18
2023-03-06T06:10:03.879Z,88.11
2023-03-06T06:12:31.241Z,87.45
2023-03-06T06:14:58.741Z,87.50
2023-03-06T06:17:25.992Z,86.70
2023-03-06T06:19:53.392Z,86.48
2023-03-06T06:22:20.389Z,85.87
2023-03-06T06:24:47.549Z,85.89
2023-03-06T06:27:14.607Z,86.10
2023-03-06T06:29:41.988Z,85.63
2023-03-06T06:32:09.284Z,85.63
2023-03-06T06:34:36.797Z,86.07
2023-03-06T06:37:04.229Z,86.14
2023-03-06T06:39:31.373Z,85.76
2023-03-06T06:42:20.812Z,85.50
2023-03-06T06:44:46.019Z,85.08
2023-03-06T06:47:28.406Z,85.09
2023-03-06T06:49:56.650Z,84.89
2023-03-06T06:52:25.089Z,84.77
2023-03-06T06:54:53.279Z,85.17
2023-03-06T06:57:20.692Z,85.21
2023-03-06T06:59:48.047Z,85.03
2023-03-06T07:02:16.637Z,85.27
2023-03-06T07:05:02.121Z,85.24
2023-03-06T07:07:33.306Z,85.45
2023-03-06T07:10:00.658Z,84.55
2023-03-06T07:12:27.976Z,84.77
2023-03-06T07:14:55.242Z,85.33
2023-03-06T07:17:23.019Z,85.09
2023-03-06T07:19:50.332Z,84.29
2023-03-06T07:22:17.462Z,83.88
2023-03-06T07:24:44.554Z,85.05
2023-03-06T07:27:11.709Z,84.73
2023-03-06T07:29:38.986Z,84.79
2023-03-06T07:32:06.576Z,85.21
2023-03-06T07:34:34.055Z,85.46
2023-03-06T07:37:01.186Z,86.37
2023-03-06T07:39:30.142Z,86.17
2023-03-06T07:41:58.897Z,86.29
2023-03-06T07:44:26.950Z,85.79
2023-03-06T07:46:54.567Z,85.40
2023-03-06T07:49:22.078Z,83.84
2023-03-06T07:51:49.360Z,84.37
2023-03-06T07:54:16.604Z,85.46
2023-03-06T07:56:43.993Z,83.59
2023-03-06T07:59:12.064Z,81.39
2023-03-06T08:01:40.540Z,80.26
2023-03-06T08:04:07.874Z,80.12
2023-03-06T08:06:35.472Z,80.23
2023-03-06T08:09:02.849Z,79.73
2023-03-06T08:11:31.312Z,77.95
2023-03-06T08:13:59.685Z,78.79
2023-03-06T08:16:28.942Z,78.92
2023-03-06T08:18:57.027Z,77.67
2023-03-06T08:21:26.187Z,75.79
2023-03-06T08:23:53.712Z,76.71
2023-03-06T08:26:29.455Z,73.94
2023-03-06T08:28:58.523Z,74.95
2023-03-06T08:31:27.912Z,74.45
2023-03-06T08:33:56.265Z,74.65
2023-03-06T08:36:24.219Z,74.85
2023-03-06T08:38:52.143Z,74.82
2023-03-06T08:41:20.447Z,73.13
2023-03-06T08:43:47.868Z,73.23
2023-03-06T08:46:15.259Z,71.73
2023-03-06T08:48:42.658Z,72.70
2023-03-06T08:51:10.353Z,69.11
2023-03-06T08:53:43.397Z,67.45
2023-03-06T08:56:28.871Z,69.19
2023-03-06T08:58:57.839Z,66.61
2023-03-06T09:01:27.845Z,66.85
2023-03-06T09:03:56.690Z,61.90
2023-03-06T09:06:25.355Z,60.62
2023-03-06T09:08:53.485Z,61.23
2023-03-06T09:11:21.776Z,63.64
2023-03-06T09:13:49.356Z,60.80
2023-03-06T09:16:16.756Z,62.85
2023-03-06T09:18:44.062Z,59.73
2023-03-06T09:21:12.150Z,59.36
2023-03-06T09:23:39.751Z,63.89
2023-03-06T09:26:08.135Z,61.52
2023-03-06T09:28:39.544Z,60.57
2023-03-06T09:31:17.472Z,60.46
2023-03-06T09:33:45.296Z,61.89
2023-03-06T09:36:23.379Z,62.57
2023-03-06T09:38:51.157Z,60.82
2023-03-06T09:41:25.439Z,62.26
2023-03-06T09:44:06.492Z,60.62
2023-03-06T09:46:52.194Z,62.97
2023-03-06T09:49:35.161Z,63.63
2023-03-06T09:52:21.068Z,63.32
2023-03-06T09:54:54.346Z,60.65
2023-03-06T09:57:55.515Z,62.36
2023-03-06T10:00:27.862Z,62.14
2023-03-06T10:03:19.132Z,60.86
2023-03-06T10:06:16.659Z,61.82
2023-03-06T10:08:52.220Z,60.09
2023-03-06T10:11:25.099Z,60.03
2023-03-06T10:13:59.268Z,55.55
2023-03-06T10:16:29.649Z,58.73
2023-03-06T10:19:01.877Z,60.13
2023-03-06T10:21:58.081Z,56.86
2023-03-06T10:24:34.524Z,56.40
2023-03-06T10:27:14.276Z,56.63
2023-03-06T10:30:03.313Z,59.63
2023-03-06T10:32:58.956Z,59.81
2023-03-06T10:35:45.136Z,59.29
2023-03-06T10:38:25.934Z,57.64
2023-03-06T10:41:20.784Z,59.27
2023-03-06T10:44:09.686Z,61.07
2023-03-06T10:46:45.279Z,60.76
2023-03-06T10:49:28.594Z,61.47
2023-03-06T10:52:16.043Z,64.45
2023-03-06T10:54:44.643Z,63.92
2023-03-06T10:57:27.048Z,64.58
2023-03-06T10:59:57.496Z,65.18
2023-03-06T11:02:29.348Z,65.50
2023-03-06T11:04:58.315Z,65.11
2023-03-06T11:07:28.245Z,62.62
2023-03-06T11:09:58.674Z,63.95
2023-03-06T11:13:15.083Z,64.31
2023-03-06T11:15:56.696Z,65.43
2023-03-06T11:18:44.081Z,64.13
2023-03-06T11:21:32.482Z,65.27
2023-03-06T11:24:16.081Z,64.75
2023-03-06T11:26:57.172Z,65.61
2023-03-06T11:29:43.493Z,65.21
2023-03-06T11:32:40.238Z,65.62
2023-03-06T11:35:13.520Z,68.89
2023-03-06T11:37:51.600Z,71.00
2023-03-06T11:40:51.798Z,72.49
2023-03-06T11:43:45.245Z,73.63
2023-03-06T11:46:25.759Z,76.07
2023-03-06T11:49:06.113Z,77.84
2023-03-06T11:51:36.643Z,79.69
2023-03-06T11:54:04.019Z,79.71
2023-03-06T11:56:44.545Z,77.83
2023-03-06T11:59:19.232Z,77.29
2023-03-06T12:01:46.849Z,75.66
2023-03-06T12:04:13.863Z,73.95
2023-03-06T12:06:50.128Z,73.22
2023-03-06T12:09:20.602Z,73.46
2023-03-06T12:12:06.601Z,74.37
2023-03-06T12:14:49.732Z,72.44
2023-03-06T12:17:26.445Z,72.00
2023-03-06T12:20:12.411Z,72.34
2023-03-06T12:22:57.740Z,70.96
2023-03-06T12:25:39.740Z,68.89
2023-03-06T12:28:10.001Z,65.89
2023-03-06T12:31:02.740Z,66.92
2023-03-06T12:34:04.622Z,66.53
2023-03-06T12:36:50.510Z,68.40
2023-03-06T12:39:32.405Z,65.58
2023-03-06T12:42:23.265Z,65.67
2023-03-06T12:44:56.905Z,64.22
2023-03-06T12:47:26.650Z,62.88
2023-03-06T12:49:57.739Z,63.03
2023-03-06T12:52:30.543Z,62.53
2023-03-06T12:54:59.485Z,63.68
2023-03-06T12:57:27.145Z,63.64
2023-03-06T12:59:54.924Z,62.93
2023-03-06T13:02:47.502Z,62.57
2023-03-06T13:05:14.295Z,63.14
2023-03-06T13:08:38.771Z,61.91
2023-03-06T13:11:27.844Z,62.29
2023-03-06T13:13:55.509Z,62.64
2023-03-06T13:16:33.312Z,60.22
2023-03-06T13:19:16.808Z,61.05
2023-03-06T13:21:55.809Z,60.21
2023-03-06T13:24:26.727Z,60.19
2023-03-06T13:27:02.534Z,59.55
2023-03-06T13:29:38.913Z,60.73
2023-03-06T13:32:14.484Z,60.63
2023-03-06T13:34:43.028Z,62.13
2023-03-06T13:37:25.275Z,61.64
2023-03-06T13:39:55.290Z,60.98
2023-03-06T13:42:37.073Z,62.53
2023-03-06T13:45:08.070Z,61.19
2023-03-06T13:48:33.598Z,60.63
2023-03-06T13:50:47.167Z,61.78
2023-03-06T13:53:40.862Z,62.14
2023-03-06T13:56:37.566Z,61.65
2023-03-06T13:59:14.292Z,61.88
2023-03-06T14:02:14.481Z,62.29
2023-03-06T14:04:55.242Z,63.32
2023-03-06T14:07:31.029Z,64.41
2023-03-06T14:10:23.167Z,64.19
2023-03-06T14:12:50.303Z,66.79
2023-03-06T14:15:37.297Z,68.47
2023-03-06T14:18:06.453Z,68.99
2023-03-06T14:20:39.257Z,68.76
2023-03-06T14:23:16.583Z,69.39
2023-03-06T14:25:45.203Z,70.44
2023-03-06T14:28:27.520Z,71.62
2023-03-06T14:30:56.107Z,68.06
2023-03-06T14:33:37.978Z,68.90
2023-03-06T14:36:09.341Z,69.42
2023-03-06T14:38:45.190Z,71.39
2023-03-06T14:41:14.073Z,73.05
2023-03-06T14:43:41.340Z,71.88
2023-03-06T14:46:19.213Z,73.42
2023-03-06T14:48:47.815Z,70.56
2023-03-06T14:51:21.175Z,69.88
2023-03-06T14:53:49.839Z,68.85
2023-03-06T14:56:24.888Z,67.20
2023-03-06T14:58:52.721Z,68.21
2023-03-06T15:01:32.897Z,67.12
2023-03-06T15:04:00.898Z,67.55
2023-03-06T15:06:33.329Z,65.70
2023-03-06T15:09:24.798Z,66.03
2023-03-06T15:12:08.148Z,65.45
2023-03-06T15:14:42.174Z,64.42
2023-03-06T15:17:18.777Z,65.45
2023-03-06T15:19:48.877Z,65.59
2023-03-06T15:22:35.907Z,67.47
2023-03-06T15:25:21.610Z,68.37
2023-03-06T15:27:53.283Z,68.89
2023-03-06T15:30:27.948Z,70.53
2023-03-06T15:33:20.437Z,71.50
2023-03-06T15:36:17.954Z,72.57
2023-03-06T15:38:46.354Z,72.25
2023-03-06T15:41:42.103Z,71.85
2023-03-06T15:44:12.198Z,72.45
2023-03-06T15:46:39.741Z,72.19
2023-03-06T15:49:14.781Z,70.43
2023-03-06T15:51:43.619Z,70.05
2023-03-06T15:54:12.877Z,69.48
2023-03-06T15:56:42.360Z,68.01
2023-03-06T15:59:17.087Z,68.64
2023-03-06T16:01:44.451Z,68.22
2023-03-06T16:04:11.961Z,68.34
2023-03-06T16:06:38.933Z,68.72
2023-03-06T16:09:06.345Z,70.18
2023-03-06T16:11:43.362Z,71.02
2023-03-06T16:14:24.088Z,70.86
2023-03-06T16:16:54.451Z,71.86
2023-03-06T16:19:26.429Z,70.23
2023-03-06T16:21:55.388Z,69.63
2023-03-06T16:24:22.680Z,70.73
2023-03-06T16:26:51.075Z,69.98
2023-03-06T16:29:19.563Z,72.25
2023-03-06T16:31:46.588Z,72.37
2023-03-06T16:34:13.552Z,73.16
2023-03-06T16:36:40.421Z,73.86
2023-03-06T16:39:13.572Z,73.87
2023-03-06T16:41:40.415Z,75.68
2023-03-06T16:44:07.880Z,76.05
2023-03-06T16:46:37.687Z,76.40
2023-03-06T16:49:04.658Z,76.88
2023-03-06T16:51:31.994Z,77.67
2023-03-06T16:53:59.044Z,78.70
2023-03-06T16:56:31.592Z,79.70
2023-03-06T16:59:00.636Z,81.64
2023-03-06T17:01:27.903Z,82.01
2023-03-06T17:03:55.195Z,83.00
2023-03-06T17:06:23.367Z,84.00
2023-03-06T17:08:51.306Z,84.47
2023-03-06T17:11:20.571Z,85.06
2023-03-06T17:13:48.634Z,85.89
2023-03-06T17:16:16.689Z,85.90
2023-03-06T17:18:45.621Z,85.95
2023-03-06T17:21:17.640Z,86.52
2023-03-06T17:23:45.151Z,86.70
2023-03-06T17:26:13.919Z,87.06
2023-03-06T17:28:41.703Z,87.52
2023-03-06T17:31:20.347Z,87.28
2023-03-06T17:33:48.751Z,87.80
2023-03-06T17:36:16.764Z,87.73
2023-03-06T17:38:44.709Z,88.44
2023-03-06T17:41:12.523Z,88.33
2023-03-06T17:43:39.852Z,88.30
2023-03-06T17:46:12.756Z,88.62
2023-03-06T17:48:40.807Z,88.62
2023-03-06T17:51:08.066Z,88.42
2023-03-06T17:53:35.976Z,88.81
2023-03-06T17:56:05.643Z,89.17
2023-03-06T17:58:33.223Z,89.04
2023-03-06T18:01:01.116Z,89.00
2023-03-06T18:03:28.397Z,88.74
2023-03-06T18:06:02.152Z,89.17
2023-03-06T18:08:29.702Z,89.67
2023-03-06T18:11:01.080Z,89.38
2023-03-06T18:13:28.494Z,90.11
2023-03-06T18:15:55.780Z,89.87
2023-03-06T18:18:24.456Z,90.38
2023-03-06T18:20:51.962Z,91.01
2023-03-06T18:23:19.361Z,90.74
2023-03-06T18:25:46.862Z,90.88
2023-03-06T18:28:14.172Z,90.91
2023-03-06T18:30:42.752Z,90.73
2023-03-06T18:33:10.735Z,91.06
2023-03-06T18:35:38.074Z,91.23
2023-03-06T18:38:05.719Z,90.77
2023-03-06T18:40:32.971Z,90.83
2023-03-06T18:43:00.084Z,91.19
2023-03-06T18:45:27.515Z,91.13
2023-03-06T18:47:55.205Z,91.83
2023-03-06T18:50:22.545Z,91.81
2023-03-06T18:52:49.973Z,91.53
2023-03-06T18:55:17.504Z,91.82
2023-03-06T19:24:01.436Z,92.50
2023-03-06T19:26:28.399Z,92.92
2023-03-06T19:28:55.090Z,92.59
2023-03-06T19:31:27.156Z,92.56
2023-03-06T19:39:16.595Z,92.84
2023-03-06T19:41:43.431Z,93.30
2023-03-06T19:44:10.114Z,93.55
2023-03-06T19:46:37.745Z,93.62
2023-03-06T19:53:17.257Z,93.67
2023-03-06T19:55:44.203Z,93.71
2023-03-06T19:58:11.385Z,94.01
2023-03-06T20:00:38.556Z,93.91
2023-03-06T20:07:18.281Z,94.22
2023-03-06T20:09:45.204Z,94.38
2023-03-06T20:12:12.559Z,95.05
2023-03-06T20:14:39.254Z,94.81
2023-03-06T20:21:25.882Z,94.98
2023-03-06T20:23:53.915Z,95.21
2023-03-06T20:26:21.053Z,94.99
2023-03-06T20:28:47.935Z,95.09
2023-03-06T20:31:19.972Z,94.96
2023-03-06T20:33:49.355Z,95.37
2023-03-06T20:36:18.302Z,95.37
2023-03-06T20:38:45.022Z,95.47
2023-03-06T20:41:20.380Z,95.19
2023-03-06T20:43:49.234Z,95.70
2023-03-06T20:46:16.229Z,95.67
2023-03-06T20:48:43.662Z,96.04
2023-03-06T20:51:17.812Z,95.87
2023-03-06T20:53:44.594Z,95.39
2023-03-06T20:56:12.905Z,96.09
2023-03-06T20:58:39.703Z,95.77
2023-03-06T21:01:06.429Z,95.68
2023-03-06T21:03:33.040Z,96.07
2023-03-06T21:05:59.794Z,95.22
2023-03-06T21:08:26.934Z,95.24
2023-03-06T21:10:53.944Z,95.08
2023-03-06T21:13:20.829Z,94.70
2023-03-06T21:15:47.788Z,94.92
2023-03-06T21:18:14.630Z,95.00
2023-03-06T21:20:41.702Z,94.63
2023-03-06T21:23:09.353Z,94.98
2023-03-06T21:25:36.714Z,94.80
2023-03-06T21:28:03.540Z,95.28
2023-03-06T21:30:30.297Z,95.08
2023-03-06T21:32:57.112Z,95.14
2023-03-06T21:35:23.778Z,95.68
2023-03-06T21:37:50.506Z,95.37
2023-03-06T21:40:17.306Z,95.43
2023-03-06T21:42:44.203Z,95.74
2023-03-06T21:45:11.100Z,95.95
2023-03-06T21:47:38.892Z,96.06
2023-03-06T21:50:07.714Z,95.99
2023-03-06T21:52:34.386Z,95.76
2023-03-06T21:55:01.199Z,95.65
2023-03-06T21:57:27.911Z,95.70
2023-03-06T21:59:54.674Z,95.54
2023-03-06T22:02:23.888Z,95.66
2023-03-06T22:04:52.527Z,95.57
2023-03-06T22:07:20.267Z,95.33
2023-03-06T22:09:47.263Z,94.91
2023-03-06T22:12:14.474Z,94.49
2023-03-06T22:14:51.320Z,94.93
2023-03-06T22:17:26.859Z,94.96
2023-03-06T22:19:56.196Z,94.68
2023-03-06T22:22:23.029Z,94.22
2023-03-06T22:24:49.813Z,94.38
2023-03-06T22:27:16.909Z,93.93
2023-03-06T22:29:43.606Z,93.65
2023-03-06T22:32:10.401Z,93.85
2023-03-06T22:34:37.124Z,93.71
2023-03-06T22:37:04.229Z,93.58
2023-03-06T22:39:31.031Z,93.97
2023-03-06T22:41:58.313Z,93.62
2023-03-06T22:44:25.199Z,93.39
2023-03-06T22:46:52.151Z,93.56
2023-03-06T22:49:19.102Z,93.71
2023-03-06T22:51:45.694Z,93.94
2023-03-06T22:54:12.626Z,93.98
2023-03-06T22:56:40.656Z,94.06
2023-03-06T22:59:07.576Z,94.09
2023-03-06T23:01:34.899Z,93.86
2023-03-06T23:04:04.196Z,94.24
2023-03-06T23:06:33.144Z,93.99
2023-03-06T23:09:09.681Z,93.84
2023-03-06T23:11:54.938Z,94.30
2023-03-06T23:14:40.374Z,94.73
2023-03-06T23:17:26.088Z,94.97
2023-03-06T23:20:13.389Z,94.62
2023-03-06T23:22:58.949Z,94.44
2023-03-06T23:25:40.771Z,94.43
2023-03-06T23:28:07.783Z,94.90
2023-03-06T23:30:34.584Z,94.65
2023-03-06T23:33:01.349Z,94.87
2023-03-06T23:35:28.052Z,95.20
2023-03-06T23:37:54.695Z,95.02
2023-03-06T23:40:22.075Z,95.06
2023-03-06T23:42:48.768Z,94.71
2023-03-06T23:45:15.740Z,95.11
2023-03-06T23:47:42.443Z,94.73
2023-03-06T23:50:09.882Z,94.13
2023-03-06T23:52:37.652Z,93.72
2023-03-06T23:55:05.696Z,93.91
2023-03-06T23:57:32.568Z,92.99
2023-03-06T23:59:59.275Z,93.58
